sensor_id;sensor_type;location;lat;lon;timestamp;P1;durP1;ratioP1;P2;durP2;ratioP2
6105;SDS011;3083;51.508;7.966;2022-11-04T00:01:25;4.37;;;2.57;;
6105;SDS011;3083;51.508;7.966;2022-11-04T00:03:52;4.77;;;2.50;;
6105;SDS011;3083;51.508;7.966;2022-11-04T00:06:21;5.30;;;2.60;;
6105;SDS011;3083;51.508;7.966;2022-11-04T00:08:48;4.43;;;2.40;;
6105;SDS011;3083;51.508;7.966;2022-11-04T00:11:15;5.00;;;2.10;;
6105;SDS011;3083;51.508;7.966;2022-11-04T00:14:00;3.33;;;2.13;;
6105;SDS011;3083;51.508;7.966;2022-11-04T00:16:28;4.40;;;2.60;;
6105;SDS011;3083;51.508;7.966;2022-11-04T00:19:12;3.77;;;2.60;;
6105;SDS011;3083;51.508;7.966;2022-11-04T00:21:40;4.50;;;3.07;;
6105;SDS011;3083;51.508;7.966;2022-11-04T00:24:25;4.70;;;3.20;;
6105;SDS011;3083;51.508;7.966;2022-11-04T00:27:20;6.70;;;3.30;;
6105;SDS011;3083;51.508;7.966;2022-11-04T00:30:06;5.53;;;3.50;;
6105;SDS011;3083;51.508;7.966;2022-11-04T00:32:34;4.80;;;3.30;;
6105;SDS011;3083;51.508;7.966;2022-11-04T00:35:19;4.53;;;2.83;;
6105;SDS011;3083;51.508;7.966;2022-11-04T00:37:49;4.57;;;3.53;;
6105;SDS011;3083;51.508;7.966;2022-11-04T00:40:15;3.83;;;2.50;;
6105;SDS011;3083;51.508;7.966;2022-11-04T00:42:43;5.03;;;2.57;;
6105;SDS011;3083;51.508;7.966;2022-11-04T00:45:11;4.10;;;2.60;;
6105;SDS011;3083;51.508;7.966;2022-11-04T00:47:38;4.13;;;2.57;;
6105;SDS011;3083;51.508;7.966;2022-11-04T00:50:06;4.87;;;2.70;;
6105;SDS011;3083;51.508;7.966;2022-11-04T00:52:34;4.00;;;2.30;;
6105;SDS011;3083;51.508;7.966;2022-11-04T00:55:02;4.33;;;2.20;;
6105;SDS011;3083;51.508;7.966;2022-11-04T00:57:29;5.90;;;2.23;;
6105;SDS011;3083;51.508;7.966;2022-11-04T00:59:57;3.87;;;2.00;;
6105;SDS011;3083;51.508;7.966;2022-11-04T01:02:24;3.70;;;2.20;;
6105;SDS011;3083;51.508;7.966;2022-11-04T01:04:51;4.90;;;2.40;;
6105;SDS011;3083;51.508;7.966;2022-11-04T01:07:18;4.07;;;2.37;;
6105;SDS011;3083;51.508;7.966;2022-11-04T01:09:45;4.73;;;2.27;;
6105;SDS011;3083;51.508;7.966;2022-11-04T01:12:13;4.47;;;2.10;;
6105;SDS011;3083;51.508;7.966;2022-11-04T01:14:41;3.63;;;2.00;;
6105;SDS011;3083;51.508;7.966;2022-11-04T01:17:08;3.80;;;1.80;;
6105;SDS011;3083;51.508;7.966;2022-11-04T01:19:34;4.23;;;1.97;;
6105;SDS011;3083;51.508;7.966;2022-11-04T01:22:01;3.33;;;1.90;;
6105;SDS011;3083;51.508;7.966;2022-11-04T01:24:28;4.17;;;2.03;;
6105;SDS011;3083;51.508;7.966;2022-11-04T01:26:55;3.43;;;1.90;;
6105;SDS011;3083;51.508;7.966;2022-11-04T01:29:23;3.07;;;1.73;;
6105;SDS011;3083;51.508;7.966;2022-11-04T01:31:50;3.10;;;1.70;;
6105;SDS011;3083;51.508;7.966;2022-11-04T01:34:17;4.30;;;1.70;;
6105;SDS011;3083;51.508;7.966;2022-11-04T01:36:45;4.27;;;2.00;;
6105;SDS011;3083;51.508;7.966;2022-11-04T01:39:12;3.20;;;1.80;;
6105;SDS011;3083;51.508;7.966;2022-11-04T01:41:39;4.40;;;2.00;;
6105;SDS011;3083;51.508;7.966;2022-11-04T01:47:04;4.03;;;1.97;;
6105;SDS011;3083;51.508;7.966;2022-11-04T01:49:31;3.90;;;2.00;;
6105;SDS011;3083;51.508;7.966;2022-11-04T01:52:02;5.30;;;2.37;;
6105;SDS011;3083;51.508;7.966;2022-11-04T01:54:32;7.00;;;2.67;;
6105;SDS011;3083;51.508;7.966;2022-11-04T01:57:01;7.03;;;2.73;;
6105;SDS011;3083;51.508;7.966;2022-11-04T01:59:32;4.80;;;2.50;;
6105;SDS011;3083;51.508;7.966;2022-11-04T02:02:03;6.27;;;2.33;;
6105;SDS011;3083;51.508;7.966;2022-11-04T02:04:30;4.33;;;2.60;;
6105;SDS011;3083;51.508;7.966;2022-11-04T02:06:58;5.50;;;3.03;;
6105;SDS011;3083;51.508;7.966;2022-11-04T02:09:27;4.97;;;2.70;;
6105;SDS011;3083;51.508;7.966;2022-11-04T02:11:55;5.60;;;3.20;;
6105;SDS011;3083;51.508;7.966;2022-11-04T02:14:40;5.93;;;3.23;;
6105;SDS011;3083;51.508;7.966;2022-11-04T02:17:12;4.87;;;3.00;;
6105;SDS011;3083;51.508;7.966;2022-11-04T02:19:56;6.63;;;3.70;;
6105;SDS011;3083;51.508;7.966;2022-11-04T02:22:42;6.73;;;3.57;;
6105;SDS011;3083;51.508;7.966;2022-11-04T02:25:37;8.77;;;3.90;;
6105;SDS011;3083;51.508;7.966;2022-11-04T02:28:26;7.30;;;4.57;;
6105;SDS011;3083;51.508;7.966;2022-11-04T02:31:11;6.23;;;3.77;;
6105;SDS011;3083;51.508;7.966;2022-11-04T02:33:44;8.50;;;4.87;;
6105;SDS011;3083;51.508;7.966;2022-11-04T02:36:20;7.60;;;4.73;;
6105;SDS011;3083;51.508;7.966;2022-11-04T02:38:53;8.23;;;4.53;;
6105;SDS011;3083;51.508;7.966;2022-11-04T02:41:25;7.13;;;4.47;;
6105;SDS011;3083;51.508;7.966;2022-11-04T02:44:01;10.27;;;5.30;;
6105;SDS011;3083;51.508;7.966;2022-11-04T02:46:39;7.90;;;4.57;;
6105;SDS011;3083;51.508;7.966;2022-11-04T02:49:15;7.10;;;4.57;;
6105;SDS011;3083;51.508;7.966;2022-11-04T02:51:47;7.40;;;4.53;;
6105;SDS011;3083;51.508;7.966;2022-11-04T02:54:19;7.57;;;4.80;;
6105;SDS011;3083;51.508;7.966;2022-11-04T02:56:51;7.33;;;4.60;;
6105;SDS011;3083;51.508;7.966;2022-11-04T02:59:23;9.63;;;4.40;;
6105;SDS011;3083;51.508;7.966;2022-11-04T03:01:56;10.67;;;4.67;;
6105;SDS011;3083;51.508;7.966;2022-11-04T03:04:27;7.63;;;4.50;;
6105;SDS011;3083;51.508;7.966;2022-11-04T03:06:56;7.50;;;4.37;;
6105;SDS011;3083;51.508;7.966;2022-11-04T03:09:26;7.23;;;4.37;;
6105;SDS011;3083;51.508;7.966;2022-11-04T03:11:56;6.93;;;3.93;;
6105;SDS011;3083;51.508;7.966;2022-11-04T03:14:28;10.00;;;4.57;;
6105;SDS011;3083;51.508;7.966;2022-11-04T03:17:03;6.90;;;4.20;;
6105;SDS011;3083;51.508;7.966;2022-11-04T03:19:37;7.57;;;4.37;;
6105;SDS011;3083;51.508;7.966;2022-11-04T03:22:09;11.93;;;4.57;;
6105;SDS011;3083;51.508;7.966;2022-11-04T03:24:38;6.00;;;3.50;;
6105;SDS011;3083;51.508;7.966;2022-11-04T03:27:08;6.97;;;4.10;;
6105;SDS011;3083;51.508;7.966;2022-11-04T03:29:47;8.20;;;4.10;;
6105;SDS011;3083;51.508;7.966;2022-11-04T03:32:23;7.60;;;3.93;;
6105;SDS011;3083;51.508;7.966;2022-11-04T03:34:55;9.53;;;4.10;;
6105;SDS011;3083;51.508;7.966;2022-11-04T03:37:22;6.10;;;4.00;;
6105;SDS011;3083;51.508;7.966;2022-11-04T03:39:49;6.83;;;4.17;;
6105;SDS011;3083;51.508;7.966;2022-11-04T03:42:16;8.77;;;3.50;;
6105;SDS011;3083;51.508;7.966;2022-11-04T03:44:47;7.60;;;4.17;;
6105;SDS011;3083;51.508;7.966;2022-11-04T03:47:16;7.03;;;4.10;;
6105;SDS011;3083;51.508;7.966;2022-11-04T03:49:47;11.53;;;4.63;;
6105;SDS011;3083;51.508;7.966;2022-11-04T03:52:16;6.33;;;3.60;;
6105;SDS011;3083;51.508;7.966;2022-11-04T03:54:44;9.47;;;3.97;;
6105;SDS011;3083;51.508;7.966;2022-11-04T03:57:16;9.73;;;4.20;;
6105;SDS011;3083;51.508;7.966;2022-11-04T04:00:00;8.47;;;4.57;;
6105;SDS011;3083;51.508;7.966;2022-11-04T04:02:45;10.03;;;4.20;;
6105;SDS011;3083;51.508;7.966;2022-11-04T04:05:29;8.20;;;4.60;;
6105;SDS011;3083;51.508;7.966;2022-11-04T04:08:00;7.70;;;4.10;;
6105;SDS011;3083;51.508;7.966;2022-11-04T04:10:36;9.37;;;4.70;;
6105;SDS011;3083;51.508;7.966;2022-11-04T04:13:11;8.57;;;4.07;;
6105;SDS011;3083;51.508;7.966;2022-11-04T04:15:48;7.20;;;4.03;;
6105;SDS011;3083;51.508;7.966;2022-11-04T04:18:22;11.30;;;4.90;;
6105;SDS011;3083;51.508;7.966;2022-11-04T04:20:57;9.73;;;4.20;;
6105;SDS011;3083;51.508;7.966;2022-11-04T04:23:27;10.07;;;4.30;;
6105;SDS011;3083;51.508;7.966;2022-11-04T04:26:15;13.53;;;4.50;;
6105;SDS011;3083;51.508;7.966;2022-11-04T04:29:02;8.63;;;4.40;;
6105;SDS011;3083;51.508;7.966;2022-11-04T04:31:32;12.00;;;4.37;;
6105;SDS011;3083;51.508;7.966;2022-11-04T04:34:18;10.70;;;4.50;;
6105;SDS011;3083;51.508;7.966;2022-11-04T04:36:49;9.13;;;4.93;;
6105;SDS011;3083;51.508;7.966;2022-11-04T04:39:25;7.70;;;4.00;;
6105;SDS011;3083;51.508;7.966;2022-11-04T04:42:14;9.10;;;3.70;;
6105;SDS011;3083;51.508;7.966;2022-11-04T04:45:00;9.50;;;4.17;;
6105;SDS011;3083;51.508;7.966;2022-11-04T04:47:37;12.63;;;4.10;;
6105;SDS011;3083;51.508;7.966;2022-11-04T04:50:08;12.50;;;4.43;;
6105;SDS011;3083;51.508;7.966;2022-11-04T04:52:38;8.97;;;3.80;;
6105;SDS011;3083;51.508;7.966;2022-11-04T04:55:07;11.33;;;4.10;;
6105;SDS011;3083;51.508;7.966;2022-11-04T04:57:34;8.53;;;4.27;;
6105;SDS011;3083;51.508;7.966;2022-11-04T05:00:02;9.07;;;4.57;;
6105;SDS011;3083;51.508;7.966;2022-11-04T05:02:30;14.53;;;4.90;;
6105;SDS011;3083;51.508;7.966;2022-11-04T05:04:57;11.13;;;3.53;;
6105;SDS011;3083;51.508;7.966;2022-11-04T05:07:25;11.07;;;4.30;;
6105;SDS011;3083;51.508;7.966;2022-11-04T05:09:53;8.83;;;3.03;;
6105;SDS011;3083;51.508;7.966;2022-11-04T05:12:20;6.93;;;3.23;;
6105;SDS011;3083;51.508;7.966;2022-11-04T05:14:47;12.17;;;4.00;;
6105;SDS011;3083;51.508;7.966;2022-11-04T05:17:14;7.60;;;2.80;;
6105;SDS011;3083;51.508;7.966;2022-11-04T05:19:41;7.13;;;3.20;;
6105;SDS011;3083;51.508;7.966;2022-11-04T05:22:08;11.20;;;3.70;;
6105;SDS011;3083;51.508;7.966;2022-11-04T05:24:35;6.63;;;3.40;;
6105;SDS011;3083;51.508;7.966;2022-11-04T05:27:03;9.40;;;3.63;;
6105;SDS011;3083;51.508;7.966;2022-11-04T05:29:30;6.27;;;3.03;;
6105;SDS011;3083;51.508;7.966;2022-11-04T05:31:57;9.20;;;3.67;;
6105;SDS011;3083;51.508;7.966;2022-11-04T05:34:24;8.50;;;3.73;;
6105;SDS011;3083;51.508;7.966;2022-11-04T05:36:51;11.33;;;3.50;;
6105;SDS011;3083;51.508;7.966;2022-11-04T05:39:18;6.80;;;3.03;;
6105;SDS011;3083;51.508;7.966;2022-11-04T05:41:45;5.83;;;3.13;;
6105;SDS011;3083;51.508;7.966;2022-11-04T05:44:13;11.37;;;3.47;;
6105;SDS011;3083;51.508;7.966;2022-11-04T05:46:40;8.43;;;3.43;;
6105;SDS011;3083;51.508;7.966;2022-11-04T05:49:07;10.00;;;3.43;;
6105;SDS011;3083;51.508;7.966;2022-11-04T05:51:34;13.93;;;3.90;;
6105;SDS011;3083;51.508;7.966;2022-11-04T05:54:02;11.33;;;3.20;;
6105;SDS011;3083;51.508;7.966;2022-11-04T05:56:30;7.97;;;4.00;;
6105;SDS011;3083;51.508;7.966;2022-11-04T05:58:57;8.70;;;2.97;;
6105;SDS011;3083;51.508;7.966;2022-11-04T06:01:27;7.77;;;3.40;;
6105;SDS011;3083;51.508;7.966;2022-11-04T06:03:56;12.87;;;3.00;;
6105;SDS011;3083;51.508;7.966;2022-11-04T06:06:25;9.47;;;3.00;;
6105;SDS011;3083;51.508;7.966;2022-11-04T06:08:53;9.33;;;3.33;;
6105;SDS011;3083;51.508;7.966;2022-11-04T06:11:21;7.60;;;3.00;;
6105;SDS011;3083;51.508;7.966;2022-11-04T06:13:49;7.37;;;2.67;;
6105;SDS011;3083;51.508;7.966;2022-11-04T06:16:16;10.80;;;3.20;;
6105;SDS011;3083;51.508;7.966;2022-11-04T06:18:44;6.63;;;2.70;;
6105;SDS011;3083;51.508;7.966;2022-11-04T06:21:19;6.73;;;3.17;;
6105;SDS011;3083;51.508;7.966;2022-11-04T06:23:50;7.87;;;2.80;;
6105;SDS011;3083;51.508;7.966;2022-11-04T06:26:18;7.40;;;2.90;;
6105;SDS011;3083;51.508;7.966;2022-11-04T06:28:46;7.10;;;3.03;;
6105;SDS011;3083;51.508;7.966;2022-11-04T06:31:13;10.73;;;3.50;;
6105;SDS011;3083;51.508;7.966;2022-11-04T06:33:40;8.73;;;3.13;;
6105;SDS011;3083;51.508;7.966;2022-11-04T06:36:09;9.70;;;2.53;;
6105;SDS011;3083;51.508;7.966;2022-11-04T06:38:39;7.97;;;3.47;;
6105;SDS011;3083;51.508;7.966;2022-11-04T06:41:08;6.10;;;2.70;;
6105;SDS011;3083;51.508;7.966;2022-11-04T06:43:37;6.13;;;2.70;;
6105;SDS011;3083;51.508;7.966;2022-11-04T06:46:04;5.27;;;2.17;;
6105;SDS011;3083;51.508;7.966;2022-11-04T06:48:32;6.63;;;2.67;;
6105;SDS011;3083;51.508;7.966;2022-11-04T06:50:59;5.10;;;2.90;;
6105;SDS011;3083;51.508;7.966;2022-11-04T06:53:28;8.80;;;3.40;;
6105;SDS011;3083;51.508;7.966;2022-11-04T06:56:00;6.07;;;2.90;;
6105;SDS011;3083;51.508;7.966;2022-11-04T06:58:30;7.20;;;3.03;;
6105;SDS011;3083;51.508;7.966;2022-11-04T07:00:57;5.27;;;2.67;;
6105;SDS011;3083;51.508;7.966;2022-11-04T07:03:23;8.73;;;3.43;;
6105;SDS011;3083;51.508;7.966;2022-11-04T07:05:51;6.33;;;3.43;;
6105;SDS011;3083;51.508;7.966;2022-11-04T07:08:17;9.47;;;3.10;;
6105;SDS011;3083;51.508;7.966;2022-11-04T07:10:46;10.73;;;2.80;;
6105;SDS011;3083;51.508;7.966;2022-11-04T07:13:13;10.90;;;2.90;;
6105;SDS011;3083;51.508;7.966;2022-11-04T07:15:40;7.33;;;3.17;;
6105;SDS011;3083;51.508;7.966;2022-11-04T07:18:07;8.53;;;3.47;;
6105;SDS011;3083;51.508;7.966;2022-11-04T07:20:34;6.03;;;2.93;;
6105;SDS011;3083;51.508;7.966;2022-11-04T07:23:02;7.10;;;2.70;;
6105;SDS011;3083;51.508;7.966;2022-11-04T07:25:29;5.90;;;2.63;;
6105;SDS011;3083;51.508;7.966;2022-11-04T07:27:57;7.03;;;2.80;;
6105;SDS011;3083;51.508;7.966;2022-11-04T07:30:25;11.20;;;2.87;;
6105;SDS011;3083;51.508;7.966;2022-11-04T07:32:52;9.83;;;3.00;;
6105;SDS011;3083;51.508;7.966;2022-11-04T07:35:19;5.57;;;2.20;;
6105;SDS011;3083;51.508;7.966;2022-11-04T07:37:46;7.57;;;2.43;;
6105;SDS011;3083;51.508;7.966;2022-11-04T07:40:13;8.37;;;2.27;;
6105;SDS011;3083;51.508;7.966;2022-11-04T07:42:40;4.37;;;1.90;;
6105;SDS011;3083;51.508;7.966;2022-11-04T07:45:08;8.40;;;2.87;;
6105;SDS011;3083;51.508;7.966;2022-11-04T07:47:35;8.83;;;2.40;;
6105;SDS011;3083;51.508;7.966;2022-11-04T07:50:03;5.63;;;2.27;;
6105;SDS011;3083;51.508;7.966;2022-11-04T07:52:30;9.70;;;2.30;;
6105;SDS011;3083;51.508;7.966;2022-11-04T07:54:57;7.97;;;2.53;;
6105;SDS011;3083;51.508;7.966;2022-11-04T07:57:24;9.27;;;2.07;;
6105;SDS011;3083;51.508;7.966;2022-11-04T07:59:51;7.13;;;2.60;;
6105;SDS011;3083;51.508;7.966;2022-11-04T08:02:19;8.77;;;2.17;;
6105;SDS011;3083;51.508;7.966;2022-11-04T08:04:46;7.93;;;2.80;;
6105;SDS011;3083;51.508;7.966;2022-11-04T08:07:15;9.20;;;2.67;;
6105;SDS011;3083;51.508;7.966;2022-11-04T08:09:42;6.13;;;2.20;;
6105;SDS011;3083;51.508;7.966;2022-11-04T08:12:08;8.23;;;2.17;;
6105;SDS011;3083;51.508;7.966;2022-11-04T08:14:35;8.03;;;2.20;;
6105;SDS011;3083;51.508;7.966;2022-11-04T08:17:03;8.10;;;2.10;;
6105;SDS011;3083;51.508;7.966;2022-11-04T08:19:31;7.20;;;2.33;;
6105;SDS011;3083;51.508;7.966;2022-11-04T08:21:58;9.30;;;2.20;;
6105;SDS011;3083;51.508;7.966;2022-11-04T08:24:25;15.70;;;2.23;;
6105;SDS011;3083;51.508;7.966;2022-11-04T08:26:51;5.13;;;1.90;;
6105;SDS011;3083;51.508;7.966;2022-11-04T08:29:18;9.70;;;2.17;;
6105;SDS011;3083;51.508;7.966;2022-11-04T08:31:45;11.43;;;2.40;;
6105;SDS011;3083;51.508;7.966;2022-11-04T08:34:12;6.03;;;1.90;;
6105;SDS011;3083;51.508;7.966;2022-11-04T08:36:44;4.70;;;1.90;;
6105;SDS011;3083;51.508;7.966;2022-11-04T08:39:11;7.07;;;2.57;;
6105;SDS011;3083;51.508;7.966;2022-11-04T08:41:39;6.60;;;1.90;;
6105;SDS011;3083;51.508;7.966;2022-11-04T08:44:09;8.87;;;2.23;;
6105;SDS011;3083;51.508;7.966;2022-11-04T08:46:36;8.43;;;2.17;;
6105;SDS011;3083;51.508;7.966;2022-11-04T08:49:04;8.00;;;2.30;;
6105;SDS011;3083;51.508;7.966;2022-11-04T08:51:32;7.63;;;2.20;;
6105;SDS011;3083;51.508;7.966;2022-11-04T08:54:03;5.57;;;1.80;;
6105;SDS011;3083;51.508;7.966;2022-11-04T08:56:31;9.37;;;2.10;;
6105;SDS011;3083;51.508;7.966;2022-11-04T08:59:00;9.47;;;2.60;;
6105;SDS011;3083;51.508;7.966;2022-11-04T09:01:30;8.20;;;1.87;;
6105;SDS011;3083;51.508;7.966;2022-11-04T09:03:59;9.23;;;2.63;;
6105;SDS011;3083;51.508;7.966;2022-11-04T09:06:26;4.47;;;1.67;;
6105;SDS011;3083;51.508;7.966;2022-11-04T09:08:56;5.17;;;1.97;;
6105;SDS011;3083;51.508;7.966;2022-11-04T09:11:29;4.90;;;1.93;;
6105;SDS011;3083;51.508;7.966;2022-11-04T09:13:58;4.77;;;2.00;;
6105;SDS011;3083;51.508;7.966;2022-11-04T09:16:26;4.73;;;1.90;;
6105;SDS011;3083;51.508;7.966;2022-11-04T09:18:54;9.10;;;2.37;;
6105;SDS011;3083;51.508;7.966;2022-11-04T09:21:23;7.73;;;2.40;;
6105;SDS011;3083;51.508;7.966;2022-11-04T09:23:50;9.30;;;2.10;;
6105;SDS011;3083;51.508;7.966;2022-11-04T09:26:17;7.10;;;1.97;;
6105;SDS011;3083;51.508;7.966;2022-11-04T09:28:46;5.43;;;1.70;;
6105;SDS011;3083;51.508;7.966;2022-11-04T09:31:14;7.47;;;2.40;;
6105;SDS011;3083;51.508;7.966;2022-11-04T09:33:42;7.70;;;2.30;;
6105;SDS011;3083;51.508;7.966;2022-11-04T09:36:10;8.03;;;2.23;;
6105;SDS011;3083;51.508;7.966;2022-11-04T09:38:38;8.53;;;2.60;;
6105;SDS011;3083;51.508;7.966;2022-11-04T09:41:20;6.80;;;1.90;;
6105;SDS011;3083;51.508;7.966;2022-11-04T09:44:11;6.07;;;2.00;;
6105;SDS011;3083;51.508;7.966;2022-11-04T09:46:45;10.43;;;2.90;;
6105;SDS011;3083;51.508;7.966;2022-11-04T09:49:14;6.67;;;2.20;;
6105;SDS011;3083;51.508;7.966;2022-11-04T09:51:42;9.60;;;2.47;;
6105;SDS011;3083;51.508;7.966;2022-11-04T09:54:14;7.20;;;2.30;;
6105;SDS011;3083;51.508;7.966;2022-11-04T09:56:46;6.03;;;2.13;;
6105;SDS011;3083;51.508;7.966;2022-11-04T09:59:18;11.10;;;2.67;;
6105;SDS011;3083;51.508;7.966;2022-11-04T10:01:50;9.00;;;2.57;;
6105;SDS011;3083;51.508;7.966;2022-11-04T10:04:28;6.43;;;2.77;;
6105;SDS011;3083;51.508;7.966;2022-11-04T10:07:11;6.90;;;2.33;;
6105;SDS011;3083;51.508;7.966;2022-11-04T10:09:51;9.60;;;2.20;;
6105;SDS011;3083;51.508;7.966;2022-11-04T10:12:32;5.07;;;2.13;;
6105;SDS011;3083;51.508;7.966;2022-11-04T10:15:20;13.90;;;2.50;;
6105;SDS011;3083;51.508;7.966;2022-11-04T10:18:03;6.97;;;2.20;;
6105;SDS011;3083;51.508;7.966;2022-11-04T10:20:42;5.93;;;2.00;;
6105;SDS011;3083;51.508;7.966;2022-11-04T10:23:19;10.10;;;2.50;;
6105;SDS011;3083;51.508;7.966;2022-11-04T10:25:48;8.90;;;2.27;;
6105;SDS011;3083;51.508;7.966;2022-11-04T10:28:23;9.67;;;2.77;;
6105;SDS011;3083;51.508;7.966;2022-11-04T10:30:56;7.50;;;2.60;;
6105;SDS011;3083;51.508;7.966;2022-11-04T10:33:25;7.83;;;2.20;;
6105;SDS011;3083;51.508;7.966;2022-11-04T10:35:58;6.20;;;2.30;;
6105;SDS011;3083;51.508;7.966;2022-11-04T10:38:31;7.00;;;2.03;;
6105;SDS011;3083;51.508;7.966;2022-11-04T10:41:02;7.30;;;2.10;;
6105;SDS011;3083;51.508;7.966;2022-11-04T10:43:43;8.30;;;2.10;;
6105;SDS011;3083;51.508;7.966;2022-11-04T10:46:19;8.37;;;2.20;;
6105;SDS011;3083;51.508;7.966;2022-11-04T10:49:36;8.13;;;2.23;;
6105;SDS011;3083;51.508;7.966;2022-11-04T10:52:08;7.23;;;2.57;;
6105;SDS011;3083;51.508;7.966;2022-11-04T10:54:38;8.10;;;2.30;;
6105;SDS011;3083;51.508;7.966;2022-11-04T10:57:07;8.97;;;2.20;;
6105;SDS011;3083;51.508;7.966;2022-11-04T10:59:37;9.37;;;2.37;;
6105;SDS011;3083;51.508;7.966;2022-11-04T11:02:16;10.63;;;2.20;;
6105;SDS011;3083;51.508;7.966;2022-11-04T11:04:44;10.07;;;2.50;;
6105;SDS011;3083;51.508;7.966;2022-11-04T11:07:13;7.50;;;2.20;;
6105;SDS011;3083;51.508;7.966;2022-11-04T11:09:50;10.13;;;2.30;;
6105;SDS011;3083;51.508;7.966;2022-11-04T11:12:21;6.80;;;2.50;;
6105;SDS011;3083;51.508;7.966;2022-11-04T11:14:54;9.77;;;2.73;;
6105;SDS011;3083;51.508;7.966;2022-11-04T11:17:29;7.17;;;2.40;;
6105;SDS011;3083;51.508;7.966;2022-11-04T11:20:06;7.00;;;2.00;;
6105;SDS011;3083;51.508;7.966;2022-11-04T11:22:45;5.70;;;2.10;;
6105;SDS011;3083;51.508;7.966;2022-11-04T11:25:23;7.67;;;2.30;;
6105;SDS011;3083;51.508;7.966;2022-11-04T11:27:54;9.40;;;2.40;;
6105;SDS011;3083;51.508;7.966;2022-11-04T11:30:24;6.73;;;2.23;;
6105;SDS011;3083;51.508;7.966;2022-11-04T11:32:56;12.33;;;2.87;;
6105;SDS011;3083;51.508;7.966;2022-11-04T11:35:26;5.17;;;2.13;;
6105;SDS011;3083;51.508;7.966;2022-11-04T11:37:57;9.53;;;2.50;;
6105;SDS011;3083;51.508;7.966;2022-11-04T11:40:29;8.33;;;3.03;;
6105;SDS011;3083;51.508;7.966;2022-11-04T11:42:59;11.87;;;2.70;;
6105;SDS011;3083;51.508;7.966;2022-11-04T11:45:28;8.00;;;2.10;;
6105;SDS011;3083;51.508;7.966;2022-11-04T11:47:58;11.40;;;2.50;;
6105;SDS011;3083;51.508;7.966;2022-11-04T11:50:25;10.83;;;2.53;;
6105;SDS011;3083;51.508;7.966;2022-11-04T11:53:14;5.00;;;2.37;;
6105;SDS011;3083;51.508;7.966;2022-11-04T11:55:49;13.77;;;2.53;;
6105;SDS011;3083;51.508;7.966;2022-11-04T11:58:25;5.37;;;2.33;;
6105;SDS011;3083;51.508;7.966;2022-11-04T12:00:59;10.07;;;2.40;;
6105;SDS011;3083;51.508;7.966;2022-11-04T12:03:31;14.23;;;3.40;;
6105;SDS011;3083;51.508;7.966;2022-11-04T12:06:07;10.80;;;3.10;;
6105;SDS011;3083;51.508;7.966;2022-11-04T12:12:04;11.73;;;2.97;;
6105;SDS011;3083;51.508;7.966;2022-11-04T12:15:07;8.23;;;2.83;;
6105;SDS011;3083;51.508;7.966;2022-11-04T12:17:51;9.03;;;2.70;;
6105;SDS011;3083;51.508;7.966;2022-11-04T12:20:38;7.60;;;3.03;;
6105;SDS011;3083;51.508;7.966;2022-11-04T12:23:13;6.17;;;2.63;;
6105;SDS011;3083;51.508;7.966;2022-11-04T12:25:47;10.07;;;2.73;;
6105;SDS011;3083;51.508;7.966;2022-11-04T12:28:27;9.87;;;2.47;;
6105;SDS011;3083;51.508;7.966;2022-11-04T12:31:04;6.43;;;2.73;;
6105;SDS011;3083;51.508;7.966;2022-11-04T12:33:44;6.40;;;2.43;;
6105;SDS011;3083;51.508;7.966;2022-11-04T12:36:29;8.60;;;3.07;;
6105;SDS011;3083;51.508;7.966;2022-11-04T12:39:30;7.87;;;2.40;;
6105;SDS011;3083;51.508;7.966;2022-11-04T12:42:16;13.63;;;2.57;;
6105;SDS011;3083;51.508;7.966;2022-11-04T12:44:52;11.83;;;2.93;;
6105;SDS011;3083;51.508;7.966;2022-11-04T12:47:32;6.53;;;2.27;;
6105;SDS011;3083;51.508;7.966;2022-11-04T13:06:24;6.80;;;2.23;;
6105;SDS011;3083;51.508;7.966;2022-11-04T13:08:55;7.27;;;2.70;;
6105;SDS011;3083;51.508;7.966;2022-11-04T13:11:29;6.77;;;3.03;;
6105;SDS011;3083;51.508;7.966;2022-11-04T13:14:03;7.00;;;3.10;;
6105;SDS011;3083;51.508;7.966;2022-11-04T13:16:35;8.77;;;3.20;;
6105;SDS011;3083;51.508;7.966;2022-11-04T13:19:12;8.67;;;2.70;;
6105;SDS011;3083;51.508;7.966;2022-11-04T13:21:49;9.73;;;2.83;;
6105;SDS011;3083;51.508;7.966;2022-11-04T13:24:20;7.57;;;3.40;;
6105;SDS011;3083;51.508;7.966;2022-11-04T13:26:56;10.90;;;5.17;;
6105;SDS011;3083;51.508;7.966;2022-11-04T13:29:27;8.20;;;2.83;;
6105;SDS011;3083;51.508;7.966;2022-11-04T13:31:57;9.63;;;3.23;;
6105;SDS011;3083;51.508;7.966;2022-11-04T13:34:33;10.40;;;3.10;;
6105;SDS011;3083;51.508;7.966;2022-11-04T13:37:09;13.70;;;4.10;;
6105;SDS011;3083;51.508;7.966;2022-11-04T13:39:45;10.57;;;4.30;;
6105;SDS011;3083;51.508;7.966;2022-11-04T13:45:03;6.23;;;3.50;;
6105;SDS011;3083;51.508;7.966;2022-11-04T13:47:35;15.37;;;3.80;;
6105;SDS011;3083;51.508;7.966;2022-11-04T13:50:13;7.97;;;3.83;;
6105;SDS011;3083;51.508;7.966;2022-11-04T13:52:55;13.30;;;3.80;;
6105;SDS011;3083;51.508;7.966;2022-11-04T13:55:22;10.50;;;4.83;;
6105;SDS011;3083;51.508;7.966;2022-11-04T13:57:50;10.00;;;5.70;;
6105;SDS011;3083;51.508;7.966;2022-11-04T14:00:21;10.50;;;4.67;;
6105;SDS011;3083;51.508;7.966;2022-11-04T14:02:50;11.80;;;3.93;;
6105;SDS011;3083;51.508;7.966;2022-11-04T14:08:24;7.33;;;3.70;;
6105;SDS011;3083;51.508;7.966;2022-11-04T14:10:58;10.23;;;3.60;;
6105;SDS011;3083;51.508;7.966;2022-11-04T14:13:43;8.40;;;3.83;;
6105;SDS011;3083;51.508;7.966;2022-11-04T14:16:41;9.90;;;4.90;;
6105;SDS011;3083;51.508;7.966;2022-11-04T14:25:19;9.70;;;3.70;;
6105;SDS011;3083;51.508;7.966;2022-11-04T14:27:51;10.57;;;3.80;;
6105;SDS011;3083;51.508;7.966;2022-11-04T14:30:30;9.63;;;3.90;;
6105;SDS011;3083;51.508;7.966;2022-11-04T14:33:02;10.43;;;3.83;;
6105;SDS011;3083;51.508;7.966;2022-11-04T14:35:33;7.37;;;3.87;;
6105;SDS011;3083;51.508;7.966;2022-11-04T14:38:19;9.10;;;4.03;;
6105;SDS011;3083;51.508;7.966;2022-11-04T14:43:39;9.50;;;3.83;;
6105;SDS011;3083;51.508;7.966;2022-11-04T14:46:09;8.63;;;3.20;;
6105;SDS011;3083;51.508;7.966;2022-11-04T14:48:45;7.37;;;3.80;;
6105;SDS011;3083;51.508;7.966;2022-11-04T14:51:19;12.17;;;3.50;;
6105;SDS011;3083;51.508;7.966;2022-11-04T14:53:51;13.30;;;4.23;;
6105;SDS011;3083;51.508;7.966;2022-11-04T14:56:26;9.70;;;3.50;;
6105;SDS011;3083;51.508;7.966;2022-11-04T14:58:54;9.20;;;4.00;;
6105;SDS011;3083;51.508;7.966;2022-11-04T15:01:23;12.90;;;4.20;;
6105;SDS011;3083;51.508;7.966;2022-11-04T15:03:51;11.80;;;5.40;;
6105;SDS011;3083;51.508;7.966;2022-11-04T15:06:23;13.67;;;6.30;;
6105;SDS011;3083;51.508;7.966;2022-11-04T15:08:52;16.57;;;6.40;;
6105;SDS011;3083;51.508;7.966;2022-11-04T15:11:21;16.00;;;8.97;;
6105;SDS011;3083;51.508;7.966;2022-11-04T15:14:19;18.07;;;8.93;;
6105;SDS011;3083;51.508;7.966;2022-11-04T15:16:49;14.83;;;9.07;;
6105;SDS011;3083;51.508;7.966;2022-11-04T15:19:29;18.23;;;8.20;;
6105;SDS011;3083;51.508;7.966;2022-11-04T15:22:00;17.60;;;10.63;;
6105;SDS011;3083;51.508;7.966;2022-11-04T15:24:28;18.13;;;9.10;;
6105;SDS011;3083;51.508;7.966;2022-11-04T15:26:57;19.33;;;10.10;;
6105;SDS011;3083;51.508;7.966;2022-11-04T15:29:31;27.30;;;14.37;;
6105;SDS011;3083;51.508;7.966;2022-11-04T15:31:59;20.03;;;10.60;;
6105;SDS011;3083;51.508;7.966;2022-11-04T15:34:28;16.90;;;9.40;;
6105;SDS011;3083;51.508;7.966;2022-11-04T15:36:57;19.30;;;10.37;;
6105;SDS011;3083;51.508;7.966;2022-11-04T15:39:29;24.70;;;10.20;;
6105;SDS011;3083;51.508;7.966;2022-11-04T15:41:58;20.00;;;9.50;;
6105;SDS011;3083;51.508;7.966;2022-11-04T15:44:47;17.47;;;8.50;;
6105;SDS011;3083;51.508;7.966;2022-11-04T15:47:22;14.50;;;7.70;;
6105;SDS011;3083;51.508;7.966;2022-11-04T15:49:52;16.20;;;7.90;;
6105;SDS011;3083;51.508;7.966;2022-11-04T15:52:26;17.73;;;8.87;;
6105;SDS011;3083;51.508;7.966;2022-11-04T15:54:54;15.17;;;9.70;;
6105;SDS011;3083;51.508;7.966;2022-11-04T15:57:23;18.07;;;8.73;;
6105;SDS011;3083;51.508;7.966;2022-11-04T15:59:55;16.50;;;8.70;;
6105;SDS011;3083;51.508;7.966;2022-11-04T16:02:26;19.80;;;8.37;;
6105;SDS011;3083;51.508;7.966;2022-11-04T16:05:01;20.87;;;10.00;;
6105;SDS011;3083;51.508;7.966;2022-11-04T16:07:33;16.00;;;8.67;;
6105;SDS011;3083;51.508;7.966;2022-11-04T16:10:02;19.20;;;8.90;;
6105;SDS011;3083;51.508;7.966;2022-11-04T16:12:47;13.93;;;8.60;;
6105;SDS011;3083;51.508;7.966;2022-11-04T16:15:32;22.83;;;11.83;;
6105;SDS011;3083;51.508;7.966;2022-11-04T16:18:01;27.40;;;9.20;;
6105;SDS011;3083;51.508;7.966;2022-11-04T16:20:29;19.20;;;9.30;;